createdAt,value
2018-07-20T00:02:14.155Z,6.50
2018-07-20T00:04:42.369Z,9.07
2018-07-20T00:07:10.861Z,7.70
2018-07-20T00:09:39.339Z,11.47
2018-07-20T00:12:07.831Z,6.23
2018-07-20T00:14:36.303Z,5.90
2018-07-20T00:17:04.839Z,5.57
2018-07-20T00:19:33.343Z,7.10
2018-07-20T00:22:01.855Z,5.87
2018-07-20T00:24:30.359Z,6.23
2018-07-20T00:26:58.875Z,6.73
2018-07-20T00:29:27.366Z,5.73
2018-07-20T00:31:55.872Z,5.77
2018-07-20T00:34:24.335Z,7.53
2018-07-20T00:36:52.846Z,6.20
2018-07-20T00:39:21.397Z,6.57
2018-07-20T00:41:49.927Z,6.30
2018-07-20T00:44:18.411Z,6.27
2018-07-20T00:46:46.907Z,7.50
2018-07-20T00:49:15.411Z,6.70
2018-07-20T00:51:43.951Z,6.43
2018-07-20T00:54:12.437Z,6.97
2018-07-20T00:56:40.919Z,6.33
2018-07-20T00:59:09.435Z,6.43
2018-07-20T01:01:37.592Z,6.63
2018-07-20T01:04:06.168Z,6.30
2018-07-20T01:06:34.651Z,7.33
2018-07-20T01:09:03.259Z,7.27
2018-07-20T01:11:31.790Z,5.93
2018-07-20T01:14:00.455Z,6.77
2018-07-20T01:16:28.951Z,6.27
2018-07-20T01:18:57.542Z,6.27
2018-07-20T01:21:26.073Z,9.50
2018-07-20T01:23:54.575Z,8.60
2018-07-20T01:26:23.070Z,6.90
2018-07-20T01:28:51.586Z,6.53
2018-07-20T01:31:20.038Z,5.80
2018-07-20T01:33:48.555Z,6.30
2018-07-20T01:36:17.055Z,6.03
2018-07-20T01:38:45.574Z,6.70
2018-07-20T01:41:14.087Z,6.40
2018-07-20T01:43:42.615Z,6.63
2018-07-20T01:46:11.434Z,6.20
2018-07-20T01:48:39.924Z,5.70
2018-07-20T01:51:08.477Z,6.60
2018-07-20T01:53:36.931Z,6.80
2018-07-20T01:56:05.506Z,8.50
2018-07-20T01:58:33.999Z,6.43
2018-07-20T02:01:02.504Z,6.37
2018-07-20T02:03:30.999Z,6.27
2018-07-20T02:05:59.494Z,6.27
2018-07-20T02:08:27.990Z,7.03
2018-07-20T02:10:58.756Z,6.80
2018-07-20T02:13:27.514Z,7.10
2018-07-20T02:15:56.481Z,6.67
2018-07-20T02:18:24.716Z,6.80
2018-07-20T02:20:53.227Z,7.23
2018-07-20T02:23:22.733Z,8.73
2018-07-20T02:25:51.244Z,6.70
2018-07-20T02:28:19.788Z,8.10
2018-07-20T02:30:48.299Z,6.80
2018-07-20T02:33:16.786Z,7.10
2018-07-20T02:35:45.282Z,8.50
2018-07-20T02:38:13.751Z,7.13
2018-07-20T02:40:42.282Z,7.67
2018-07-20T02:43:10.766Z,7.33
2018-07-20T02:45:39.251Z,7.53
2018-07-20T02:48:07.814Z,7.03
2018-07-20T02:50:36.292Z,7.20
2018-07-20T02:53:04.846Z,7.30
2018-07-20T02:55:33.319Z,7.53
2018-07-20T02:58:05.301Z,7.87
2018-07-20T03:00:33.816Z,8.20
2018-07-20T03:03:02.354Z,7.37
2018-07-20T03:05:30.827Z,6.87
2018-07-20T03:07:59.365Z,7.40
2018-07-20T03:10:27.839Z,7.73
2018-07-20T03:12:57.012Z,7.80
2018-07-20T03:15:25.527Z,9.07
2018-07-20T03:17:54.053Z,8.40
2018-07-20T03:20:22.579Z,7.63
2018-07-20T03:22:51.159Z,7.50
2018-07-20T03:25:19.651Z,7.63
2018-07-20T03:27:48.163Z,7.47
2018-07-20T03:30:16.321Z,9.93
2018-07-20T03:32:44.865Z,8.00
2018-07-20T03:35:13.323Z,10.10
2018-07-20T03:37:41.842Z,7.93
2018-07-20T03:40:10.342Z,7.13
2018-07-20T03:42:38.815Z,7.47
2018-07-20T03:45:07.367Z,7.83
2018-07-20T03:47:35.831Z,7.67
2018-07-20T03:50:04.532Z,7.43
2018-07-20T03:52:33.019Z,7.30
2018-07-20T03:55:01.607Z,7.93
2018-07-20T03:57:30.079Z,10.90
2018-07-20T03:59:58.585Z,8.83
2018-07-20T04:02:27.089Z,7.67
2018-07-20T04:04:55.607Z,7.60
2018-07-20T04:07:24.069Z,7.73
2018-07-20T04:09:52.587Z,8.07
2018-07-20T04:12:21.130Z,9.33
2018-07-20T04:14:49.738Z,8.63
2018-07-20T04:17:18.205Z,9.03
2018-07-20T04:19:46.758Z,7.63
2018-07-20T04:22:15.248Z,8.13
2018-07-20T04:24:43.963Z,8.23
2018-07-20T04:27:12.441Z,8.60
2018-07-20T04:29:40.926Z,7.83
2018-07-20T04:32:09.402Z,7.93
2018-07-20T04:34:37.914Z,8.17
2018-07-20T04:37:06.414Z,7.97
2018-07-20T04:39:34.904Z,8.27
2018-07-20T04:42:03.467Z,7.20
2018-07-20T04:44:33.081Z,7.83
2018-07-20T04:47:01.587Z,7.00
2018-07-20T04:49:30.093Z,7.47
2018-07-20T04:51:58.610Z,8.67
2018-07-20T04:54:27.090Z,7.70
2018-07-20T04:56:55.667Z,8.70
2018-07-20T04:59:24.128Z,8.17
2018-07-20T05:01:52.657Z,8.20
2018-07-20T05:04:21.126Z,7.07
2018-07-20T05:06:49.638Z,8.40
2018-07-20T05:09:18.105Z,7.63
2018-07-20T05:11:46.702Z,7.53
2018-07-20T05:14:15.187Z,8.07
2018-07-20T05:16:43.730Z,8.23
2018-07-20T05:19:12.254Z,10.30
2018-07-20T05:21:41.306Z,8.50
2018-07-20T05:24:09.835Z,8.90
2018-07-20T05:26:38.327Z,8.53
2018-07-20T05:29:06.798Z,8.13
2018-07-20T05:31:35.365Z,8.20
2018-07-20T05:34:03.967Z,10.50
2018-07-20T05:36:32.463Z,11.53
2018-07-20T05:39:00.955Z,10.63
2018-07-20T05:41:29.434Z,9.53
2018-07-20T05:43:57.951Z,10.73
2018-07-20T05:46:26.411Z,10.63
2018-07-20T05:48:54.995Z,9.87
2018-07-20T05:51:23.472Z,15.20
2018-07-20T05:53:51.994Z,9.87
2018-07-20T05:56:20.461Z,11.57
2018-07-20T05:58:48.934Z,13.23
2018-07-20T06:01:17.508Z,13.10
2018-07-20T06:03:46.118Z,9.53
2018-07-20T06:06:14.604Z,9.90
2018-07-20T06:08:43.198Z,8.83
2018-07-20T06:11:11.810Z,12.97
2018-07-20T06:13:40.294Z,8.73
2018-07-20T06:16:08.785Z,9.17
2018-07-20T06:18:37.746Z,14.07
2018-07-20T06:21:06.877Z,11.40
2018-07-20T06:23:35.479Z,10.67
2018-07-20T06:26:04.009Z,10.03
2018-07-20T06:28:32.519Z,8.07
2018-07-20T06:31:01.327Z,8.80
2018-07-20T06:33:29.810Z,7.80
2018-07-20T06:35:58.350Z,9.63
2018-07-20T06:38:26.814Z,8.57
2018-07-20T06:40:55.362Z,7.83
2018-07-20T06:43:23.826Z,8.00
2018-07-20T06:45:52.332Z,8.80
2018-07-20T06:48:20.802Z,9.03
2018-07-20T06:50:49.362Z,8.77
2018-07-20T06:53:17.879Z,7.97
2018-07-20T06:55:46.459Z,7.77
2018-07-20T06:58:15.015Z,7.80
2018-07-20T07:00:43.574Z,7.03
2018-07-20T07:03:12.095Z,7.33
2018-07-20T07:05:40.626Z,7.57
2018-07-20T07:08:09.114Z,7.40
2018-07-20T07:10:37.738Z,7.63
2018-07-20T07:13:06.274Z,7.43
2018-07-20T07:15:34.790Z,8.57
2018-07-20T07:18:03.281Z,8.23
2018-07-20T07:20:31.858Z,9.13
2018-07-20T07:23:00.396Z,8.83
2018-07-20T07:25:28.890Z,8.23
2018-07-20T07:27:57.420Z,10.33
2018-07-20T07:30:25.936Z,9.67
2018-07-20T07:32:54.524Z,9.83
2018-07-20T07:35:23.054Z,9.90
2018-07-20T07:37:51.564Z,9.97
2018-07-20T07:40:19.726Z,9.67
2018-07-20T07:42:48.252Z,9.40
2018-07-20T07:45:16.726Z,10.40
2018-07-20T07:47:45.290Z,11.20
2018-07-20T07:50:13.926Z,9.37
2018-07-20T07:52:42.441Z,9.73
2018-07-20T07:55:10.910Z,9.67
2018-07-20T07:57:39.398Z,9.87
2018-07-20T08:00:07.856Z,9.50
2018-07-20T08:02:36.366Z,10.20
2018-07-20T08:05:04.932Z,9.83
2018-07-20T08:07:33.405Z,9.93
2018-07-20T08:10:02.040Z,10.03
2018-07-20T08:12:30.475Z,11.10
2018-07-20T08:14:58.979Z,10.17
2018-07-20T08:17:27.446Z,9.77
2018-07-20T08:19:56.046Z,9.43
2018-07-20T08:22:24.534Z,9.53
2018-07-20T08:24:53.134Z,9.13
2018-07-20T08:27:21.607Z,9.23
2018-07-20T08:29:50.136Z,9.77
2018-07-20T08:32:18.640Z,8.03
2018-07-20T08:34:47.221Z,9.70
2018-07-20T08:37:15.742Z,9.30
2018-07-20T08:39:44.881Z,9.33
2018-07-20T08:42:13.366Z,9.23
2018-07-20T08:44:41.879Z,9.70
2018-07-20T08:47:10.381Z,9.07
2018-07-20T08:49:38.920Z,9.53
2018-07-20T08:52:07.464Z,9.17
2018-07-20T08:54:36.036Z,9.47
2018-07-20T08:57:04.530Z,9.47
2018-07-20T08:59:33.063Z,8.77
2018-07-20T09:02:01.775Z,8.87
2018-07-20T09:04:30.506Z,9.23
2018-07-20T09:06:59.051Z,9.70
2018-07-20T09:09:27.628Z,10.47
2018-07-20T09:11:56.163Z,9.83
2018-07-20T09:14:24.689Z,8.53
2018-07-20T09:16:53.197Z,9.03
2018-07-20T09:19:21.719Z,9.27
2018-07-20T09:21:50.305Z,9.60
2018-07-20T09:24:19.371Z,8.53
2018-07-20T09:26:47.927Z,9.37
2018-07-20T09:29:17.027Z,9.70
2018-07-20T09:31:45.546Z,9.70
2018-07-20T09:34:14.134Z,9.27
2018-07-20T09:36:42.626Z,9.40
2018-07-20T09:39:11.810Z,8.90
2018-07-20T09:41:40.348Z,9.98
2018-07-20T09:44:08.843Z,8.43
2018-07-20T09:46:37.402Z,8.48
2018-07-20T09:49:06.119Z,9.28
2018-07-20T09:51:34.644Z,9.13
2018-07-20T09:54:03.183Z,9.33
2018-07-20T09:56:31.706Z,8.60
2018-07-20T09:59:00.343Z,9.53
2018-07-20T10:01:28.900Z,8.28
2018-07-20T10:03:57.391Z,8.28
2018-07-20T10:06:25.950Z,8.95
2018-07-20T10:08:54.446Z,8.45
2018-07-20T10:11:22.927Z,9.48
2018-07-20T10:13:51.454Z,9.15
2018-07-20T10:16:20.078Z,9.13
2018-07-20T10:18:48.624Z,8.63
2018-07-20T10:21:17.102Z,9.43
2018-07-20T10:23:45.607Z,9.28
2018-07-20T10:26:14.088Z,10.30
2018-07-20T10:28:42.697Z,9.40
2018-07-20T10:31:11.192Z,9.43
2018-07-20T10:33:39.730Z,8.85
2018-07-20T10:36:08.278Z,10.90
2018-07-20T10:38:36.807Z,9.58
2018-07-20T10:41:05.286Z,9.65
2018-07-20T10:43:33.834Z,9.80
2018-07-20T10:46:02.474Z,8.78
2018-07-20T10:48:30.986Z,9.83
2018-07-20T10:50:59.474Z,9.38
2018-07-20T10:53:28.003Z,9.28
2018-07-20T10:55:56.494Z,10.32
2018-07-20T10:58:25.058Z,10.18
2018-07-20T11:00:53.546Z,10.35
2018-07-20T11:03:22.047Z,9.50
2018-07-20T11:05:50.615Z,9.95
2018-07-20T11:08:19.124Z,11.05
2018-07-20T11:10:47.686Z,10.45
2018-07-20T11:13:16.168Z,10.63
2018-07-20T11:15:44.743Z,10.32
2018-07-20T11:18:12.953Z,9.58
2018-07-20T11:20:41.586Z,9.98
2018-07-20T11:23:10.068Z,10.88
2018-07-20T11:25:38.633Z,10.28
2018-07-20T11:28:07.176Z,11.25
2018-07-20T11:30:35.704Z,10.63
2018-07-20T11:33:04.208Z,10.55
2018-07-20T11:35:33.028Z,9.93
2018-07-20T11:38:01.572Z,9.65
2018-07-20T11:40:30.214Z,10.03
2018-07-20T11:42:58.740Z,10.40
2018-07-20T11:45:27.303Z,9.53
2018-07-20T11:47:55.839Z,13.32
2018-07-20T11:50:24.402Z,11.10
2018-07-20T11:52:52.883Z,9.90
2018-07-20T11:55:21.374Z,8.98
2018-07-20T11:57:49.881Z,9.50
2018-07-20T12:00:18.406Z,10.55
2018-07-20T12:02:46.966Z,9.10
2018-07-20T12:05:15.414Z,9.35
2018-07-20T12:07:43.954Z,9.03
2018-07-20T12:10:12.434Z,8.78
2018-07-20T12:12:40.986Z,10.13
2018-07-20T12:15:09.510Z,8.43
2018-07-20T12:17:39.430Z,9.05
2018-07-20T12:20:08.078Z,8.63
2018-07-20T12:22:36.637Z,13.13
2018-07-20T12:25:05.617Z,9.98
2018-07-20T12:27:34.170Z,9.45
2018-07-20T12:30:02.672Z,9.48
2018-07-20T12:32:31.212Z,9.15
2018-07-20T12:34:59.698Z,9.53
2018-07-20T12:37:28.230Z,8.55
2018-07-20T12:39:56.756Z,9.35
2018-07-20T12:42:25.256Z,8.80
2018-07-20T12:44:53.759Z,8.23
2018-07-20T12:47:22.291Z,7.22
2018-07-20T12:49:50.838Z,7.55
2018-07-20T12:52:19.442Z,7.35
2018-07-20T12:54:47.982Z,10.03
2018-07-20T12:57:16.498Z,8.80
2018-07-20T12:59:45.043Z,8.65
2018-07-20T13:02:13.590Z,7.62
2018-07-20T13:04:42.110Z,8.40
2018-07-20T13:07:10.595Z,7.78
2018-07-20T13:09:39.114Z,7.28
2018-07-20T13:12:07.706Z,7.50
2018-07-20T13:14:36.146Z,8.18
2018-07-20T13:17:04.678Z,7.28
2018-07-20T13:19:33.246Z,7.47
2018-07-20T13:22:01.740Z,7.12
2018-07-20T13:24:30.262Z,7.15
2018-07-20T13:26:58.754Z,7.83
2018-07-20T13:29:27.261Z,7.42
2018-07-20T13:31:55.738Z,7.42
2018-07-20T13:34:24.232Z,8.00
2018-07-20T13:36:52.715Z,8.15
2018-07-20T13:39:21.237Z,8.35
2018-07-20T13:41:49.793Z,8.50
2018-07-20T13:44:18.299Z,8.03
2018-07-20T13:46:46.865Z,7.83
2018-07-20T13:49:15.423Z,8.05
2018-07-20T13:51:43.886Z,7.62
2018-07-20T13:54:12.371Z,7.58
2018-07-20T13:56:40.564Z,7.95
2018-07-20T13:59:09.011Z,7.60
2018-07-20T14:01:37.613Z,7.95
2018-07-20T14:04:06.136Z,7.30
2018-07-20T14:06:34.656Z,7.78
2018-07-20T14:09:03.360Z,8.70
2018-07-20T14:11:31.892Z,9.60
2018-07-20T14:14:00.375Z,8.33
2018-07-20T14:16:28.917Z,8.60
2018-07-20T14:18:57.515Z,8.55
2018-07-20T14:21:27.333Z,9.05
2018-07-20T14:23:55.854Z,8.50
2018-07-20T14:26:24.415Z,9.48
2018-07-20T14:28:52.957Z,8.50
2018-07-20T14:31:21.538Z,8.93
2018-07-20T14:33:50.058Z,9.33
2018-07-20T14:36:18.546Z,7.80
2018-07-20T14:38:47.042Z,8.33
2018-07-20T14:41:15.534Z,8.23
2018-07-20T14:43:44.104Z,8.48
2018-07-20T14:46:12.927Z,7.97
2018-07-20T14:48:41.421Z,9.25
2018-07-20T14:51:09.941Z,9.08
2018-07-20T14:53:38.411Z,7.67
2018-07-20T14:56:06.907Z,8.78
2018-07-20T14:58:35.434Z,8.58
2018-07-20T15:01:03.969Z,9.48
2018-07-20T15:03:32.458Z,8.28
2018-07-20T15:06:00.926Z,8.43
2018-07-20T15:08:29.490Z,8.85
2018-07-20T15:10:57.911Z,8.83
2018-07-20T15:13:26.400Z,8.40
2018-07-20T15:15:54.871Z,8.50
2018-07-20T15:18:23.400Z,8.70
2018-07-20T15:20:51.877Z,9.10
2018-07-20T15:23:20.073Z,7.75
2018-07-20T15:25:48.543Z,8.95
2018-07-20T15:28:17.044Z,9.23
2018-07-20T15:30:45.947Z,9.10
2018-07-20T15:33:14.532Z,8.45
2018-07-20T15:35:43.034Z,8.93
2018-07-20T15:38:11.554Z,9.43
2018-07-20T15:40:40.071Z,8.55
2018-07-20T15:43:08.558Z,8.18
2018-07-20T15:45:37.063Z,10.18
2018-07-20T15:48:06.111Z,8.80
2018-07-20T15:50:34.742Z,9.78
2018-07-20T15:55:32.307Z,8.63
2018-07-20T15:58:00.759Z,8.68
2018-07-20T16:00:29.283Z,9.48
2018-07-20T16:02:57.831Z,10.60
2018-07-20T16:05:26.410Z,9.10
2018-07-20T16:07:54.887Z,11.83
2018-07-20T16:10:23.418Z,10.38
2018-07-20T16:12:51.882Z,12.23
2018-07-20T16:15:20.422Z,9.10
2018-07-20T16:17:48.887Z,7.95
2018-07-20T16:20:17.757Z,9.00
2018-07-20T16:22:46.278Z,8.40
2018-07-20T16:25:14.769Z,9.13
2018-07-20T16:27:43.252Z,9.83
2018-07-20T16:30:11.769Z,9.20
2018-07-20T16:32:40.253Z,9.65
2018-07-20T16:35:08.937Z,9.40
2018-07-20T16:37:37.386Z,8.78
2018-07-20T16:40:05.992Z,9.60
2018-07-20T16:42:34.722Z,8.63
2018-07-20T16:45:03.234Z,8.60
2018-07-20T16:47:32.135Z,8.85
2018-07-20T16:50:00.630Z,9.10
2018-07-20T16:52:29.151Z,9.08
2018-07-20T16:54:57.634Z,9.33
2018-07-20T16:57:26.162Z,8.98
2018-07-20T16:59:54.679Z,8.70
2018-07-20T17:02:23.194Z,8.55
2018-07-20T17:04:51.697Z,9.13
2018-07-20T17:07:20.217Z,8.58
2018-07-20T17:09:48.683Z,9.18
2018-07-20T17:12:17.226Z,9.28
2018-07-20T17:14:45.697Z,9.30
2018-07-20T17:17:14.291Z,9.58
2018-07-20T17:19:43.090Z,9.40
2018-07-20T17:22:11.640Z,9.33
2018-07-20T17:24:40.302Z,9.60
2018-07-20T17:27:08.843Z,10.03
2018-07-20T17:29:37.303Z,9.40
2018-07-20T17:32:05.802Z,9.68
2018-07-20T17:34:34.323Z,9.40
2018-07-20T17:37:02.862Z,8.93
2018-07-20T17:39:31.055Z,9.00
2018-07-20T17:41:59.579Z,8.93
2018-07-20T17:44:28.101Z,8.50
2018-07-20T17:46:56.557Z,8.37
2018-07-20T17:49:25.106Z,10.07
2018-07-20T17:51:53.621Z,9.47
2018-07-20T17:54:22.137Z,8.47
2018-07-20T17:56:50.666Z,8.33
2018-07-20T17:59:19.402Z,8.97
2018-07-20T18:01:47.907Z,8.50
2018-07-20T18:04:16.426Z,8.83
2018-07-20T18:06:44.894Z,9.83
2018-07-20T18:09:13.401Z,8.53
2018-07-20T18:11:41.910Z,8.00
2018-07-20T18:14:10.442Z,8.57
2018-07-20T18:16:38.941Z,8.03
2018-07-20T18:19:07.466Z,9.43
2018-07-20T18:21:35.986Z,8.10
2018-07-20T18:24:04.136Z,7.33
2018-07-20T18:26:32.650Z,9.83
2018-07-20T18:29:01.113Z,8.40
2018-07-20T18:31:29.646Z,10.07
2018-07-20T18:33:58.174Z,7.77
2018-07-20T18:36:26.641Z,7.80
2018-07-20T18:38:55.089Z,8.63
2018-07-20T18:41:23.634Z,8.27
2018-07-20T18:43:52.105Z,7.53
2018-07-20T18:46:20.630Z,8.60
2018-07-20T18:48:49.115Z,10.10
2018-07-20T18:51:17.624Z,9.03
2018-07-20T18:53:46.108Z,8.53
2018-07-20T18:56:14.623Z,8.77
2018-07-20T18:58:43.101Z,8.60
2018-07-20T19:01:11.605Z,8.33
2018-07-20T19:03:40.084Z,8.00
2018-07-20T19:06:08.645Z,8.53
2018-07-20T19:08:37.175Z,8.23
2018-07-20T19:11:05.723Z,9.60
2018-07-20T19:13:34.212Z,8.73
2018-07-20T19:16:02.715Z,8.43
2018-07-20T19:18:31.235Z,9.03
2018-07-20T19:20:59.779Z,9.43
2018-07-20T19:23:28.339Z,8.50
2018-07-20T19:25:56.795Z,9.23
2018-07-20T19:28:25.309Z,9.07
2018-07-20T19:30:53.826Z,8.57
2018-07-20T19:33:22.476Z,8.30
2018-07-20T19:35:50.968Z,8.70
2018-07-20T19:38:19.525Z,9.47
2018-07-20T19:40:48.052Z,8.77
2018-07-20T19:43:16.569Z,9.53
2018-07-20T19:45:45.079Z,9.83
2018-07-20T19:48:13.593Z,9.60
2018-07-20T19:50:42.059Z,9.87
2018-07-20T19:53:10.567Z,9.73
2018-07-20T19:55:38.753Z,9.90
2018-07-20T19:58:07.285Z,9.80
2018-07-20T20:00:35.813Z,10.30
2018-07-20T20:03:04.386Z,9.63
2018-07-20T20:05:32.900Z,10.87
2018-07-20T20:08:02.020Z,9.87
2018-07-20T20:10:30.908Z,10.83
2018-07-20T20:12:59.392Z,10.07
2018-07-20T20:15:28.026Z,9.60
2018-07-20T20:17:56.476Z,10.37
2018-07-20T20:20:25.062Z,10.87
2018-07-20T20:22:53.541Z,10.40
2018-07-20T20:25:22.090Z,12.93
2018-07-20T20:27:50.620Z,11.83
2018-07-20T20:30:19.176Z,10.77
2018-07-20T20:32:47.698Z,10.13
2018-07-20T20:35:16.222Z,10.13
2018-07-20T20:37:44.697Z,10.87
2018-07-20T20:40:13.220Z,10.43
2018-07-20T20:42:41.747Z,9.27
2018-07-20T20:45:10.292Z,11.30
2018-07-20T20:47:38.867Z,9.77
2018-07-20T20:50:07.972Z,10.17
2018-07-20T20:52:36.777Z,9.30
2018-07-20T20:55:05.408Z,10.63
2018-07-20T20:57:33.945Z,11.57
2018-07-20T21:00:03.383Z,9.43
2018-07-20T21:02:31.898Z,9.43
2018-07-20T21:05:00.412Z,9.37
2018-07-20T21:07:29.491Z,9.63
2018-07-20T21:09:57.997Z,10.07
2018-07-20T21:12:26.612Z,10.10
2018-07-20T21:14:55.123Z,10.60
2018-07-20T21:17:23.677Z,9.67
2018-07-20T21:19:52.327Z,10.83
2018-07-20T21:22:20.887Z,11.83
2018-07-20T21:24:49.354Z,11.03
2018-07-20T21:27:17.923Z,13.47
2018-07-20T21:29:46.411Z,11.30
2018-07-20T21:32:14.999Z,10.83
2018-07-20T21:34:43.531Z,11.47
2018-07-20T21:37:12.031Z,10.77
2018-07-20T21:39:40.566Z,11.63
2018-07-20T21:42:09.106Z,11.20
2018-07-20T21:44:37.645Z,13.83
2018-07-20T21:47:06.269Z,10.43
2018-07-20T21:49:34.770Z,11.63
2018-07-20T21:52:05.011Z,13.13
2018-07-20T21:54:34.811Z,10.10
2018-07-20T21:57:03.287Z,10.67
2018-07-20T21:59:31.901Z,13.33
2018-07-20T22:02:00.427Z,9.93
2018-07-20T22:04:29.000Z,9.70
2018-07-20T22:06:57.451Z,9.50
2018-07-20T22:09:25.988Z,11.30
2018-07-20T22:11:54.459Z,10.50
2018-07-20T22:14:23.003Z,10.70
2018-07-20T22:16:51.523Z,10.50
2018-07-20T22:19:20.087Z,9.83
2018-07-20T22:21:50.558Z,11.93
2018-07-20T22:24:19.143Z,10.13
2018-07-20T22:26:47.687Z,11.07
2018-07-20T22:29:16.203Z,9.80
2018-07-20T22:31:44.735Z,9.93
2018-07-20T22:34:13.239Z,9.80
2018-07-20T22:36:41.707Z,11.27
2018-07-20T22:39:12.135Z,10.17
2018-07-20T22:41:41.486Z,10.47
2018-07-20T22:44:10.031Z,10.67
2018-07-20T22:46:38.534Z,10.50
2018-07-20T22:49:07.161Z,10.30
2018-07-20T22:51:35.698Z,11.20
2018-07-20T22:54:04.238Z,10.37
2018-07-20T22:56:32.782Z,10.20
2018-07-20T22:59:01.285Z,10.37
2018-07-20T23:01:29.795Z,10.33
2018-07-20T23:03:58.291Z,9.83
2018-07-20T23:06:26.814Z,10.63
2018-07-20T23:08:55.286Z,10.73
2018-07-20T23:11:23.853Z,9.70
2018-07-20T23:13:52.350Z,9.53
2018-07-20T23:16:20.545Z,10.83
2018-07-20T23:18:49.047Z,10.50
2018-07-20T23:21:17.691Z,9.73
2018-07-20T23:23:46.192Z,10.43
2018-07-20T23:26:14.803Z,10.00
2018-07-20T23:28:43.286Z,10.30
2018-07-20T23:31:12.658Z,10.57
2018-07-20T23:33:41.191Z,10.07
2018-07-20T23:36:09.682Z,10.73
2018-07-20T23:38:38.187Z,10.80
2018-07-20T23:41:06.984Z,10.67
2018-07-20T23:43:35.435Z,9.70
2018-07-20T23:46:04.023Z,11.50
2018-07-20T23:48:32.503Z,11.93
2018-07-20T23:51:01.075Z,10.40
2018-07-20T23:53:29.595Z,11.17
2018-07-20T23:55:58.185Z,10.93
2018-07-20T23:58:26.716Z,13.03
